Longmire, WA

3:17 AM PDT on April 30, 2017 (GMT -0700)
MCMT69 | | Change Station

Elev 6825 ft 46.94 °N, 121.50 °W | Updated 1 hour ago

Overcast
Overcast
30.0 °F
Feels Like 18 °F
N
17.0
Wind Variable Wind from West
Gusts 28.0 mph

Today
High -- | Low -- °F
--% Chance of Precip.
Yesterday
High -- | Low -- °F
Precip. -- in
Pressure 30.06 in
Visibility 1.2 miles
Clouds Overcast 300 ft
Windchill 18 °F
Dew Point 30.0 °F
Humidity 99%
Rainfall 0.15 in
Snow Depth Not available.
5:51 AM 8:15 PM
Waxing Crescent, 21% visible
METAR KSMP 300956Z AUTO 28010G20KT 240V320 1 1/4SM BR OVC003 03/03 A3003 RMK AO2 RAE54 SLP179 P0006 T00330033
Pressure 30.06 in
Visibility 1.2 miles
Clouds Overcast 300 ft
Windchill 18 °F
Dew Point 30.0 °F
Humidity 99%
Rainfall 0.15 in
Snow Depth Not available.
5:51 AM 8:15 PM
Waxing Crescent, 21% visible
METAR KSMP 300956Z AUTO 28010G20KT 240V320 1 1/4SM BR OVC003 03/03 A3003 RMK AO2 RAE54 SLP179 P0006 T00330033

Get Severe Weather Alerts

Thanks for signing up!

Be on the lookout for a verification email in your inbox.

You'll start receiving the daily forecast at 8 AM.

×

10-Day Weather Forecast

Almanac

Astronomy

Apr. 30, 2017 Rise Set
Actual Time
Civil Twilight
Nautical Twilight
Astronomical Twilight
Moon
Length of Visible Light
Length of Day
Tomorrow will be .
, % of the Moon is Illuminated

Today's Extremes

State Highs State Lows

Community

WunderPhotos

WunderBlog® & News

Nearby

Air Quality

  Air Quality AQ Index Pollutant
Not available.

Snow Depth

Station Depth Elevation

Earthquake Activity

City Distance Mag. Time & Date
Minimum magnitude displayed is 2.5.

Coastal Water Temperatures

Place Temperature

Stations

Nearby Weather Stations

Station Location Temp. Windchill Dew Point Humidity Wind Precip. Elev Updated Type
                   

Watches & Warnings

There are currently no watches in effect.